Time;durP1;ratioP1;P1;durP2;ratioP2;P2;SDS_P1;SDS_P2;PMS_P1;PMS_P2;Temp;Humidity;BMP_temperature;BMP_pressure;BME280_temperature;BME280_humidity;BME280_pressure;Samples;Min_cycle;Max_cycle;Signal;HPM_P1;HPM_P2
2022/11/05 00:09:31;;;;;;;10.07;5.23;;;;;;;7.97;100.00;95905.97;5062558;28;20270;-70
2022/11/05 00:17:28;;;;;;;10.77;5.70;;;;;;;8.07;100.00;95921.47;5062649;28;20238;-68
2022/11/05 00:19:54;;;;;;;11.20;5.33;;;;;;;8.09;100.00;95920.34;5063741;28;20200;-68
2022/11/05 00:25:15;;;;;;;12.47;5.30;;;;;;;8.21;100.00;95919.03;5061123;28;20233;-70
2022/11/05 00:27:46;;;;;;;11.03;5.47;;;;;;;8.29;100.00;95923.44;5059053;28;20647;-70
2022/11/05 00:30:16;;;;;;;13.43;6.77;;;;;;;8.26;100.00;95932.47;5056716;28;20192;-69
2022/11/05 00:32:44;;;;;;;10.03;5.50;;;;;;;8.21;100.00;95933.94;5057783;28;20259;-69
2022/11/05 00:35:10;;;;;;;18.23;6.07;;;;;;;8.25;100.00;95932.59;5056910;28;20219;-70
2022/11/05 00:37:37;;;;;;;11.23;5.70;;;;;;;8.23;100.00;95945.09;5060202;28;20252;-70
2022/11/05 00:40:05;;;;;;;9.80;5.13;;;;;;;8.29;100.00;95944.44;5063097;28;20207;-69
2022/11/05 00:45:17;;;;;;;9.83;4.80;;;;;;;8.28;100.00;95948.84;5068771;28;20210;-70
2022/11/05 00:50:28;;;;;;;8.90;4.87;;;;;;;8.26;100.00;95955.25;5059642;28;21057;-67
2022/11/05 00:52:56;;;;;;;12.33;5.07;;;;;;;8.35;100.00;95959.47;5060987;28;20224;-68
2022/11/05 00:55:23;;;;;;;9.57;4.57;;;;;;;8.29;100.00;95965.44;5057854;28;20196;-70
2022/11/05 00:57:50;;;;;;;9.83;4.63;;;;;;;8.33;100.00;95966.72;5064057;28;20200;-68
2022/11/05 01:00:18;;;;;;;9.07;5.30;;;;;;;8.40;100.00;95967.66;5059260;28;20205;-69
2022/11/05 01:02:45;;;;;;;8.53;5.00;;;;;;;8.40;100.00;95972.91;5063963;28;20196;-69
2022/11/05 01:05:12;;;;;;;7.13;4.20;;;;;;;8.40;100.00;95976.38;5066729;28;20227;-70
2022/11/05 01:07:39;;;;;;;7.80;4.47;;;;;;;8.42;100.00;95986.72;5060499;28;20210;-70
2022/11/05 01:10:06;;;;;;;8.87;4.53;;;;;;;8.47;100.00;95985.19;5056471;28;20566;-68
2022/11/05 01:12:33;;;;;;;10.50;4.53;;;;;;;8.44;100.00;95984.72;5058396;28;20583;-70
2022/11/05 01:15:00;;;;;;;9.83;4.50;;;;;;;8.47;100.00;95990.44;5064256;28;20204;-70
2022/11/05 01:17:28;;;;;;;10.03;4.70;;;;;;;8.51;100.00;95989.13;5062902;28;20235;-69
2022/11/05 01:19:55;;;;;;;7.47;4.17;;;;;;;8.44;100.00;95984.72;5066468;28;20200;-68
2022/11/05 01:22:21;;;;;;;9.27;4.30;;;;;;;8.32;100.00;95992.13;5063749;28;20196;-70
2022/11/05 01:24:48;;;;;;;8.50;4.40;;;;;;;8.34;100.00;95994.59;5060027;28;20649;-70
2022/11/05 01:27:14;;;;;;;8.83;4.07;;;;;;;8.35;100.00;95996.22;5063123;28;20220;-70
2022/11/05 01:29:41;;;;;;;9.33;4.57;;;;;;;8.36;100.00;95997.88;5056463;28;20204;-70
2022/11/05 01:32:08;;;;;;;9.70;4.73;;;;;;;8.34;100.00;96005.09;5056639;28;20205;-69
2022/11/05 01:34:35;;;;;;;8.83;4.40;;;;;;;8.48;100.00;95997.34;5065947;28;20242;-70
2022/11/05 01:37:02;;;;;;;7.80;4.30;;;;;;;8.48;100.00;96009.63;5061232;28;20236;-70
2022/11/05 01:39:28;;;;;;;8.53;4.03;;;;;;;8.51;100.00;96013.59;5060408;28;20201;-70
2022/11/05 01:41:55;;;;;;;11.20;4.77;;;;;;;8.57;100.00;96007.63;5061615;28;20219;-69
2022/11/05 01:44:52;;;;;;;11.63;4.47;;;;;;;8.74;100.00;96011.81;5075356;28;20196;-70
2022/11/05 01:47:27;;;;;;;8.10;4.30;;;;;;;8.69;100.00;96014.16;5058601;28;20244;-69
2022/11/05 01:49:58;;;;;;;11.40;4.27;;;;;;;8.71;100.00;96006.91;5065600;28;20572;-69
2022/11/05 01:52:26;;;;;;;11.37;5.63;;;;;;;8.68;100.00;96009.91;5066905;28;20207;-69
2022/11/05 01:54:53;;;;;;;9.50;4.43;;;;;;;8.60;100.00;96009.94;5060748;28;20213;-69
2022/11/05 01:57:20;;;;;;;12.33;4.93;;;;;;;8.58;100.00;96009.28;5062906;28;20228;-70
2022/11/05 01:59:50;;;;;;;10.63;4.30;;;;;;;8.69;100.00;96011.53;5065073;28;20201;-69
2022/11/05 02:02:18;;;;;;;10.27;4.40;;;;;;;8.67;100.00;96010.06;5060419;28;20208;-70
2022/11/05 02:04:49;;;;;;;10.27;4.83;;;;;;;8.74;100.00;96011.81;5065391;28;20212;-70
2022/11/05 02:07:18;;;;;;;10.50;4.77;;;;;;;8.75;100.00;96010.03;5064040;28;20587;-70
2022/11/05 02:09:51;;;;;;;10.77;5.47;;;;;;;8.77;100.00;96008.88;5067674;28;20914;-69
2022/11/05 02:12:18;;;;;;;12.47;5.23;;;;;;;8.70;100.00;96012.34;5060923;28;20212;-68
2022/11/05 02:14:45;;;;;;;11.57;5.17;;;;;;;8.63;100.00;96003.50;5060256;28;20204;-70
2022/11/05 02:17:22;;;;;;;15.13;6.03;;;;;;;8.70;100.00;96013.16;5058884;28;20704;-70
2022/11/05 02:20:09;;;;;;;14.97;6.30;;;;;;;8.73;100.00;96002.31;5059584;28;20196;-69
2022/11/05 02:23:15;;;;;;;11.30;4.90;;;;;;;8.77;100.00;96008.88;5064601;28;20211;-69
2022/11/05 02:26:18;;;;;;;10.63;4.23;;;;;;;8.78;100.00;96010.50;5068481;28;20216;-69
2022/11/05 02:29:07;;;;;;;11.27;4.53;;;;;;;8.78;100.00;96009.69;5057351;28;20294;-68
2022/11/05 02:31:41;;;;;;;11.33;4.50;;;;;;;8.62;100.00;96007.94;5062764;28;20205;-70
2022/11/05 02:34:15;;;;;;;12.40;4.77;;;;;;;8.63;100.00;96012.22;5058412;28;20224;-68
2022/11/05 02:36:49;;;;;;;9.10;4.57;;;;;;;8.62;100.00;96015.81;5059224;28;20228;-70
2022/11/05 02:39:29;;;;;;;11.00;4.87;;;;;;;8.69;100.00;96010.72;5058665;28;20199;-70
2022/11/05 02:42:03;;;;;;;12.50;5.00;;;;;;;8.72;100.00;96016.44;5072510;28;20207;-69
2022/11/05 02:44:38;;;;;;;8.93;4.50;;;;;;;8.70;100.00;96022.84;5063543;28;20192;-70
2022/11/05 02:47:15;;;;;;;16.17;5.37;;;;;;;8.70;100.00;96022.84;5075520;28;20211;-69
2022/11/05 02:49:51;;;;;;;8.63;4.17;;;;;;;8.66;100.00;96022.38;5058883;28;20207;-69
2022/11/05 02:52:26;;;;;;;8.47;4.23;;;;;;;8.65;100.00;96015.47;5066908;28;20196;-69
2022/11/05 02:55:03;;;;;;;11.00;4.27;;;;;;;8.66;100.00;96022.38;5060544;28;20220;-68
2022/11/05 02:57:30;;;;;;;10.27;3.87;;;;;;;8.62;100.00;96023.69;5058154;28;20220;-70
2022/11/05 03:00:05;;;;;;;10.27;4.20;;;;;;;8.66;100.00;96014.50;5058197;28;20961;-68
2022/11/05 03:02:33;;;;;;;10.67;4.07;;;;;;;8.64;100.00;96013.84;5060589;28;20862;-70
2022/11/05 03:05:02;;;;;;;11.60;4.10;;;;;;;8.58;100.00;96017.16;5061437;28;20205;-70
2022/11/05 03:07:37;;;;;;;8.47;3.87;;;;;;;8.51;100.00;96010.13;5058080;28;20233;-68
2022/11/05 03:10:22;;;;;;;6.93;3.90;;;;;;;8.51;100.00;96010.97;5058064;28;20204;-70
2022/11/05 03:12:58;;;;;;;9.57;4.23;;;;;;;8.51;100.00;96018.84;5058675;28;20200;-70
2022/11/05 03:15:39;;;;;;;6.30;3.63;;;;;;;8.46;100.00;96016.88;5058140;28;20207;-70
2022/11/05 03:18:14;;;;;;;8.30;4.07;;;;;;;8.35;100.00;96032.97;5062904;28;20203;-69
2022/11/05 03:20:47;;;;;;;7.53;3.87;;;;;;;8.33;100.00;96032.34;5066738;28;20209;-69
2022/11/05 03:23:24;;;;;;;6.77;3.20;;;;;;;8.34;100.00;96032.16;5066269;28;20196;-70
2022/11/05 03:25:55;;;;;;;11.63;4.53;;;;;;;8.27;100.00;96033.00;5060789;28;20303;-68
2022/11/05 03:28:24;;;;;;;9.10;4.50;;;;;;;8.20;100.00;96026.81;5065578;28;21109;-69
2022/11/05 03:30:54;;;;;;;8.43;3.83;;;;;;;8.22;100.00;96035.31;5070679;28;20211;-68
2022/11/05 03:33:27;;;;;;;8.40;4.20;;;;;;;8.24;100.00;96042.03;5062784;28;20220;-68
2022/11/05 03:35:58;;;;;;;7.73;3.90;;;;;;;8.22;100.00;96038.78;5065837;28;20230;-70
2022/11/05 03:38:28;;;;;;;7.33;3.90;;;;;;;8.27;100.00;96051.38;5060181;28;20205;-68
2022/11/05 03:40:59;;;;;;;6.73;3.40;;;;;;;8.26;100.00;96055.81;5057786;28;20200;-69
2022/11/05 03:43:30;;;;;;;7.23;4.00;;;;;;;8.28;100.00;96053.84;5057143;28;20200;-70
2022/11/05 03:46:00;;;;;;;6.90;3.63;;;;;;;8.30;100.00;96062.38;5057850;28;20639;-70
2022/11/05 03:48:31;;;;;;;6.60;3.77;;;;;;;8.32;100.00;96070.06;5059899;28;20203;-70
2022/11/05 03:51:18;;;;;;;9.10;3.70;;;;;;;8.35;100.00;96069.72;5057442;28;20212;-69
2022/11/05 03:53:49;;;;;;;7.03;4.03;;;;;;;8.37;100.00;96078.28;5056336;28;20224;-68
2022/11/05 03:56:20;;;;;;;12.93;4.40;;;;;;;8.36;100.00;96072.19;5064462;28;20220;-68
2022/11/05 03:58:48;;;;;;;7.17;3.57;;;;;;;8.28;100.00;96074.03;5065487;28;20195;-68
2022/11/05 04:01:15;;;;;;;5.87;3.73;;;;;;;8.31;100.00;96074.53;5059791;28;20199;-69
2022/11/05 04:03:43;;;;;;;7.93;4.20;;;;;;;8.36;100.00;96077.44;5056519;28;20342;-70
2022/11/05 04:14:25;;;;;;;6.07;3.57;;;;;;;8.38;100.00;96090.41;5061154;28;20257;-68
2022/11/05 04:17:07;;;;;;;6.37;3.43;;;;;;;8.38;100.00;96093.06;5061703;28;20223;-70
2022/11/05 04:25:04;;;;;;;4.43;3.07;;;;;;;8.46;100.00;96099.09;5059308;28;20208;-68
2022/11/05 04:27:31;;;;;;;5.87;3.50;;;;;;;8.48;100.00;96098.91;5062157;28;20216;-70
2022/11/05 04:32:42;;;;;;;5.83;3.10;;;;;;;8.48;100.00;96105.00;5065364;28;20230;-69
2022/11/05 04:35:10;;;;;;;6.03;3.60;;;;;;;8.61;100.00;96113.16;5058374;28;20243;-70
2022/11/05 04:37:36;;;;;;;5.00;2.73;;;;;;;8.54;100.00;96110.41;5057532;28;20215;-70
2022/11/05 04:40:03;;;;;;;6.37;3.50;;;;;;;8.53;100.00;96110.56;5064050;28;20209;-70
2022/11/05 04:42:29;;;;;;;5.70;3.20;;;;;;;8.55;100.00;96114.66;5056586;28;20216;-70
2022/11/05 04:44:56;;;;;;;5.93;3.10;;;;;;;8.56;100.00;96120.72;5056483;28;20201;-69
2022/11/05 04:47:22;;;;;;;8.63;3.20;;;;;;;8.58;100.00;96119.56;5054758;28;20235;-70
2022/11/05 04:49:49;;;;;;;5.43;3.13;;;;;;;8.51;100.00;96126.50;5061438;28;20195;-70
2022/11/05 04:52:16;;;;;;;5.23;2.93;;;;;;;8.62;100.00;96120.88;5058778;28;20521;-69
2022/11/05 04:54:43;;;;;;;5.27;3.03;;;;;;;8.56;100.00;96123.34;5065028;28;20219;-68
2022/11/05 04:57:09;;;;;;;7.47;3.33;;;;;;;8.54;100.00;96117.44;5059466;28;20565;-70
2022/11/05 04:59:36;;;;;;;7.33;3.43;;;;;;;8.54;100.00;96118.28;5071559;28;20200;-70
2022/11/05 05:02:03;;;;;;;12.47;3.80;;;;;;;8.58;100.00;96122.22;5062521;28;20578;-70
2022/11/05 05:04:29;;;;;;;5.03;3.00;;;;;;;8.60;100.00;96125.50;5066607;28;20211;-70
2022/11/05 05:06:56;;;;;;;7.17;3.30;;;;;;;8.58;100.00;96124.84;5059594;28;20222;-69
2022/11/05 05:09:23;;;;;;;7.03;3.40;;;;;;;8.67;100.00;96118.56;5057217;28;20208;-69
2022/11/05 05:11:50;;;;;;;5.10;3.10;;;;;;;8.63;100.00;96119.06;5064269;28;20197;-70
2022/11/05 05:14:16;;;;;;;5.40;2.87;;;;;;;8.59;100.00;96131.72;5060811;28;20230;-69
2022/11/05 05:16:43;;;;;;;7.40;3.10;;;;;;;8.61;100.00;96129.75;5064681;28;21095;-67
2022/11/05 05:19:10;;;;;;;7.30;3.47;;;;;;;8.59;100.00;96131.72;5064025;28;20195;-70
2022/11/05 05:21:38;;;;;;;6.83;3.30;;;;;;;8.59;100.00;96136.97;5069985;28;20200;-67
2022/11/05 05:24:07;;;;;;;7.53;3.57;;;;;;;8.61;100.00;96134.19;5059990;28;20201;-70
2022/11/05 05:26:35;;;;;;;8.70;3.73;;;;;;;8.66;100.00;96137.13;5060434;28;20220;-70
2022/11/05 05:29:02;;;;;;;8.77;3.47;;;;;;;8.63;100.00;96148.78;5060132;28;20209;-70
2022/11/05 05:31:28;;;;;;;5.67;3.53;;;;;;;8.69;100.00;96150.75;5059994;28;20205;-70
2022/11/05 05:33:55;;;;;;;5.70;3.37;;;;;;;8.69;100.00;96150.75;5067569;28;20842;-69
2022/11/05 05:36:23;;;;;;;5.17;3.30;;;;;;;8.64;100.00;96150.44;5061825;28;20236;-70
2022/11/05 05:38:49;;;;;;;8.00;3.97;;;;;;;8.62;100.00;96156.84;5069842;28;20369;-69
2022/11/05 05:41:16;;;;;;;10.60;3.63;;;;;;;8.66;100.00;96158.94;5060565;28;20207;-69
2022/11/05 05:43:44;;;;;;;5.80;2.93;;;;;;;8.70;100.00;96155.00;5059362;28;20200;-68
2022/11/05 05:46:13;;;;;;;7.17;3.60;;;;;;;8.65;100.00;96156.50;5061662;28;20220;-69
2022/11/05 05:48:40;;;;;;;6.83;3.73;;;;;;;8.65;100.00;96161.75;5061505;28;20207;-70
2022/11/05 05:51:08;;;;;;;7.60;3.70;;;;;;;8.70;100.00;96164.69;5059987;28;20205;-69
2022/11/05 05:53:35;;;;;;;8.30;3.50;;;;;;;8.64;100.00;96171.44;5059172;28;20205;-68
2022/11/05 05:56:02;;;;;;;8.53;3.73;;;;;;;8.64;100.00;96175.88;5059759;28;20715;-70
2022/11/05 05:58:32;;;;;;;7.83;3.77;;;;;;;8.74;100.00;96179.94;5060015;28;20211;-68
2022/11/05 06:01:01;;;;;;;6.50;3.60;;;;;;;8.74;100.00;96179.94;5059093;28;20235;-70
2022/11/05 06:03:28;;;;;;;8.40;4.30;;;;;;;8.70;100.00;96186.53;5058851;28;20216;-70
2022/11/05 06:06:00;;;;;;;5.63;3.57;;;;;;;8.86;100.00;96186.50;5059486;28;20217;-70
2022/11/05 06:08:26;;;;;;;10.27;4.10;;;;;;;8.77;100.00;96184.88;5059426;28;20598;-68
2022/11/05 06:10:53;;;;;;;7.87;4.00;;;;;;;8.78;100.00;96185.69;5059585;28;20204;-70
2022/11/05 06:13:19;;;;;;;10.07;4.67;;;;;;;8.83;100.00;96192.06;5058555;28;20200;-70
2022/11/05 06:15:46;;;;;;;16.07;7.03;;;;;;;8.78;100.00;96183.06;5066188;28;20742;-68
2022/11/05 06:18:14;;;;;;;14.60;5.40;;;;;;;8.82;100.00;96190.47;5065750;28;20205;-70
2022/11/05 06:20:40;;;;;;;9.77;5.60;;;;;;;8.72;100.00;96194.25;5075095;28;20204;-69
2022/11/05 06:23:07;;;;;;;16.10;7.33;;;;;;;8.80;100.00;96208.19;5072958;28;20204;-70
2022/11/05 06:25:33;;;;;;;12.77;6.23;;;;;;;8.72;100.00;96208.22;5076136;28;20216;-68
2022/11/05 06:28:00;;;;;;;13.43;6.57;;;;;;;8.79;100.00;96198.66;5068727;28;20239;-71
2022/11/05 06:30:26;;;;;;;15.37;5.53;;;;;;;8.59;100.00;96204.44;5074455;28;20732;-69
2022/11/05 06:32:53;;;;;;;9.70;5.07;;;;;;;8.68;100.00;96209.53;5061712;28;20931;-70
2022/11/05 06:35:21;;;;;;;8.70;5.17;;;;;;;8.85;100.00;96210.31;5073228;28;20230;-70
2022/11/05 06:37:48;;;;;;;10.57;4.80;;;;;;;8.81;100.00;96212.47;5062000;28;20205;-70
2022/11/05 06:40:14;;;;;;;8.03;4.63;;;;;;;8.85;100.00;96219.03;5062435;28;20212;-71
2022/11/05 06:42:41;;;;;;;8.20;4.23;;;;;;;8.88;100.00;96231.81;5064825;28;20200;-69
2022/11/05 06:45:08;;;;;;;8.80;4.90;;;;;;;8.93;100.00;96232.13;5059034;28;20200;-70
2022/11/05 06:47:35;;;;;;;12.30;5.50;;;;;;;8.84;100.00;96225.25;5059757;28;20786;-69
2022/11/05 06:50:01;;;;;;;9.03;5.23;;;;;;;8.82;100.00;96235.13;5059690;28;20204;-70
2022/11/05 06:52:30;;;;;;;8.30;4.67;;;;;;;8.77;100.00;96242.69;5058291;28;20204;-70
2022/11/05 06:54:56;;;;;;;11.63;4.83;;;;;;;8.80;100.00;96244.97;5063151;28;21121;-68
2022/11/05 06:57:23;;;;;;;12.47;5.67;;;;;;;8.80;100.00;96247.59;5064149;28;20231;-70
2022/11/05 06:59:49;;;;;;;11.37;6.10;;;;;;;8.85;100.00;96247.13;5058789;28;20192;-69
2022/11/05 07:02:17;;;;;;;11.73;5.70;;;;;;;8.80;100.00;96260.72;5058390;28;20201;-70
2022/11/05 07:04:43;;;;;;;18.10;5.13;;;;;;;8.80;100.00;96260.72;5064765;28;20199;-69
2022/11/05 07:07:10;;;;;;;12.63;5.27;;;;;;;8.83;100.00;96264.84;5058224;28;20236;-70
2022/11/05 07:09:41;;;;;;;12.27;6.10;;;;;;;8.96;100.00;96265.97;5059884;28;20936;-70
2022/11/05 07:12:08;;;;;;;14.87;6.33;;;;;;;8.78;100.00;96269.75;5057990;28;20261;-70
2022/11/05 07:14:35;;;;;;;14.43;7.50;;;;;;;8.86;100.00;96281.09;5068206;28;20601;-70
2022/11/05 07:17:01;;;;;;;13.67;6.93;;;;;;;8.84;100.00;96277.81;5058806;28;20224;-68
2022/11/05 07:19:28;;;;;;;16.70;8.50;;;;;;;8.91;100.00;96278.78;5063804;28;20224;-70
2022/11/05 07:21:55;;;;;;;13.30;6.17;;;;;;;8.90;100.00;96277.16;5059560;28;20227;-68
2022/11/05 07:24:21;;;;;;;10.93;5.40;;;;;;;8.86;100.00;96281.09;5062821;28;20201;-70
2022/11/05 07:26:49;;;;;;;14.23;6.27;;;;;;;8.89;100.00;96287.84;5058227;28;20221;-71
2022/11/05 07:29:15;;;;;;;15.47;6.93;;;;;;;8.73;100.00;96288.66;5057757;28;20203;-70
2022/11/05 07:31:42;;;;;;;21.37;7.80;;;;;;;8.76;100.00;96295.41;5065787;28;20314;-67
2022/11/05 07:34:08;;;;;;;18.47;7.67;;;;;;;8.72;100.00;96294.91;5058100;28;20239;-67
2022/11/05 07:36:38;;;;;;;19.47;7.57;;;;;;;8.81;100.00;96304.41;5057883;28;20236;-69
2022/11/05 07:39:04;;;;;;;13.53;6.67;;;;;;;8.78;100.00;96296.03;5062011;28;20213;-70
2022/11/05 07:41:31;;;;;;;11.00;5.13;;;;;;;8.77;100.00;96297.84;5060886;28;20207;-70
2022/11/05 07:43:59;;;;;;;10.80;4.87;;;;;;;8.68;100.00;96303.25;5058966;28;20200;-69
2022/11/05 07:46:25;;;;;;;9.57;4.97;;;;;;;8.74;100.00;96302.59;5060697;28;20220;-70
2022/11/05 07:48:52;;;;;;;11.53;5.90;;;;;;;8.84;100.00;96314.59;5059699;28;20205;-69
2022/11/05 07:51:18;;;;;;;10.87;5.13;;;;;;;8.79;100.00;96306.38;5057632;28;20679;-70
2022/11/05 07:53:47;;;;;;;10.53;5.20;;;;;;;8.86;100.00;96317.88;5056724;28;20197;-70
2022/11/05 07:56:13;;;;;;;9.60;3.90;;;;;;;8.85;100.00;96325.94;5057125;28;20220;-68
2022/11/05 07:58:40;;;;;;;9.07;4.70;;;;;;;8.82;100.00;96326.25;5057549;28;20207;-68
2022/11/05 08:01:08;;;;;;;9.67;4.17;;;;;;;8.98;100.00;96331.50;5060421;28;20691;-70
2022/11/05 08:03:34;;;;;;;11.00;5.10;;;;;;;8.94;100.00;96336.28;5069617;28;20206;-71
2022/11/05 08:06:01;;;;;;;9.57;5.00;;;;;;;9.04;100.00;96339.56;5057183;28;20254;-70
2022/11/05 08:08:28;;;;;;;12.60;5.00;;;;;;;9.09;100.00;96342.53;5057295;28;20963;-68
2022/11/05 08:10:54;;;;;;;8.90;4.77;;;;;;;8.96;100.00;96334.31;5057023;28;20663;-67
2022/11/05 08:13:21;;;;;;;8.00;4.70;;;;;;;9.07;100.00;96341.84;5056679;28;20193;-68
2022/11/05 08:15:47;;;;;;;10.37;4.93;;;;;;;9.18;100.00;96344.97;5061987;28;20230;-70
2022/11/05 08:18:17;;;;;;;9.60;4.70;;;;;;;9.33;100.00;96343.31;5060976;28;20946;-68
2022/11/05 08:20:45;;;;;;;11.83;5.83;;;;;;;9.20;100.00;96342.16;5057803;28;21229;-68
2022/11/05 08:23:11;;;;;;;9.87;5.50;;;;;;;9.22;100.00;96345.47;5067872;28;20202;-70
2022/11/05 08:25:38;;;;;;;9.53;4.93;;;;;;;9.24;100.00;96344.31;5060811;28;20471;-70
2022/11/05 08:28:07;;;;;;;8.77;4.97;;;;;;;9.53;100.00;96343.75;5056950;28;21127;-70
2022/11/05 08:30:34;;;;;;;8.00;4.30;;;;;;;9.39;100.00;96352.34;5063460;28;20196;-70
2022/11/05 08:33:02;;;;;;;8.83;5.03;;;;;;;9.54;100.00;96358.56;5056298;28;20219;-70
2022/11/05 08:35:30;;;;;;;8.07;4.03;;;;;;;9.46;100.00;96353.31;5056467;28;20230;-70
2022/11/05 08:37:58;;;;;;;8.33;4.10;;;;;;;9.43;100.00;96351.00;5057209;28;20200;-70
2022/11/05 08:40:25;;;;;;;10.27;4.80;;;;;;;9.54;100.00;96351.47;5058731;28;20201;-68
2022/11/05 08:42:52;;;;;;;9.30;4.80;;;;;;;9.55;100.00;96347.06;5056221;28;20203;-69
2022/11/05 08:45:19;;;;;;;7.63;4.13;;;;;;;9.64;100.00;96351.31;5056466;28;20200;-68
2022/11/05 08:47:45;;;;;;;5.33;3.60;;;;;;;9.52;100.00;96350.00;5058919;28;20216;-70
2022/11/05 08:50:12;;;;;;;5.97;3.07;;;;;;;9.50;100.00;96357.25;5068339;28;20249;-70
2022/11/05 08:52:41;;;;;;;8.07;4.40;;;;;;;9.61;100.00;96354.25;5070621;28;20200;-70
2022/11/05 08:55:08;;;;;;;8.57;4.03;;;;;;;9.52;100.00;96358.72;5068834;28;20227;-71
2022/11/05 08:57:35;;;;;;;8.83;3.80;;;;;;;9.59;100.00;96364.16;5068264;28;20199;-71
2022/11/05 09:00:02;;;;;;;6.10;3.20;;;;;;;9.38;100.00;96366.47;5071704;28;20657;-70
2022/11/05 09:02:28;;;;;;;7.73;3.23;;;;;;;9.36;100.00;96373.72;5070745;28;20295;-71
2022/11/05 09:04:57;;;;;;;9.03;3.30;;;;;;;9.37;100.00;96370.09;5072612;28;20192;-70
2022/11/05 09:07:24;;;;;;;7.67;3.20;;;;;;;9.37;100.00;96372.72;5067697;28;20227;-71
2022/11/05 09:09:52;;;;;;;10.27;4.93;;;;;;;9.48;100.00;96367.09;5068531;28;20205;-71
2022/11/05 09:12:18;;;;;;;7.87;4.13;;;;;;;9.38;100.00;96369.09;5070431;28;20200;-70
2022/11/05 09:14:45;;;;;;;5.13;3.07;;;;;;;9.44;100.00;96373.69;5074380;28;20234;-71
2022/11/05 09:17:17;;;;;;;8.47;1.97;;;;;;;9.48;100.00;96369.75;5067354;28;20216;-70
2022/11/05 09:19:44;;;;;;;8.37;2.63;;;;;;;9.47;100.00;96378.63;5071577;28;20192;-71
2022/11/05 09:22:11;;;;;;;1.27;1.17;;;;;;;9.31;100.00;96376.00;5072303;28;20201;-70
2022/11/05 09:24:38;;;;;;;4.77;2.40;;;;;;;9.24;100.00;96378.50;5068690;28;20224;-71
2022/11/05 09:27:07;;;;;;;3.03;1.90;;;;;;;9.27;100.00;96372.06;5070607;28;20216;-70
2022/11/05 09:29:33;;;;;;;4.73;2.67;;;;;;;9.32;100.00;96369.78;5074024;28;20200;-71
2022/11/05 09:32:00;;;;;;;3.43;2.03;;;;;;;9.29;100.00;96375.34;5069988;28;20420;-70
2022/11/05 09:34:27;;;;;;;2.90;1.60;;;;;;;9.34;100.00;96379.16;5065562;28;20197;-71
2022/11/05 09:36:54;;;;;;;4.53;2.43;;;;;;;9.40;100.00;96390.81;5071140;28;20234;-71
2022/11/05 09:39:21;;;;;;;4.60;2.50;;;;;;;9.24;100.00;96393.44;5063212;28;20444;-70
2022/11/05 09:41:49;;;;;;;5.57;2.17;;;;;;;9.29;100.00;96389.34;5061149;28;20201;-70
2022/11/05 09:44:19;;;;;;;4.87;1.93;;;;;;;9.48;100.00;96394.25;5068849;28;20196;-71
2022/11/05 09:46:51;;;;;;;2.63;1.60;;;;;;;9.44;100.00;96397.38;5068767;28;20625;-70
2022/11/05 09:49:25;;;;;;;4.63;1.70;;;;;;;9.34;100.00;96405.44;5060122;28;20200;-71
2022/11/05 09:51:54;;;;;;;2.73;1.97;;;;;;;9.57;100.00;96400.31;5069712;28;20206;-71
2022/11/05 09:54:23;;;;;;;3.00;1.30;;;;;;;9.68;100.00;96405.22;5066197;28;20192;-71
2022/11/05 09:56:51;;;;;;;2.67;1.50;;;;;;;9.78;100.00;96412.75;5059017;28;20224;-69
2022/11/05 09:59:23;;;;;;;2.20;1.60;;;;;;;9.81;100.00;96407.19;5068900;28;20570;-71
2022/11/05 10:01:52;;;;;;;3.60;1.80;;;;;;;9.80;100.00;96404.69;5068384;28;20200;-68
2022/11/05 10:04:22;;;;;;;3.90;2.50;;;;;;;9.85;100.00;96408.47;5063040;28;20205;-71
2022/11/05 10:06:53;;;;;;;2.57;1.67;;;;;;;9.84;100.00;96414.72;5062824;28;21065;-68
2022/11/05 10:09:25;;;;;;;2.80;1.80;;;;;;;9.88;100.00;96402.06;5059176;28;20200;-71
2022/11/05 10:11:55;;;;;;;2.90;1.57;;;;;;;9.70;100.00;96404.88;5061000;28;20211;-70
2022/11/05 10:14:28;;;;;;;2.27;1.43;;;;;;;9.81;100.00;96407.19;5058219;28;20201;-71
2022/11/05 10:16:59;;;;;;;2.23;1.70;;;;;;;9.73;100.00;96412.44;5060657;28;20265;-70
2022/11/05 10:19:28;;;;;;;3.20;2.20;;;;;;;9.97;100.00;96412.41;5058946;28;20794;-68
2022/11/05 10:22:01;;;;;;;4.37;2.20;;;;;;;9.99;100.00;96413.09;5067378;28;20589;-70
2022/11/05 10:24:28;;;;;;;3.17;1.70;;;;;;;10.04;100.00;96413.41;5057789;28;20204;-70
2022/11/05 10:26:55;;;;;;;3.40;2.00;;;;;;;10.10;100.00;96423.22;5063512;28;20227;-70
2022/11/05 10:29:28;;;;;;;6.10;2.60;;;;;;;10.10;100.00;96420.59;5058952;28;20312;-71
2022/11/05 10:31:56;;;;;;;4.30;2.23;;;;;;;10.00;100.00;96417.34;5062763;28;20231;-71
2022/11/05 10:34:26;;;;;;;7.53;3.60;;;;;;;10.07;100.00;96420.94;5058403;28;20289;-70
2022/11/05 10:36:53;;;;;;;5.27;3.13;;;;;;;10.17;100.00;96413.69;5058287;28;20235;-68
2022/11/05 10:39:22;;;;;;;6.17;3.47;;;;;;;10.44;100.00;96413.25;5058497;28;20204;-71
2022/11/05 10:42:01;;;;;;;9.10;2.83;;;;;;;10.58;100.00;96423.06;5058164;28;20902;-69
2022/11/05 10:44:36;;;;;;;7.03;3.83;;;;;;;10.62;100.00;96416.44;5067805;28;20200;-69
2022/11/05 10:47:32;;;;;;;5.23;3.03;;;;;;;10.58;100.00;96421.22;5057554;28;20492;-71
2022/11/05 10:50:00;;;;;;;6.47;3.90;;;;;;;10.35;100.00;96427.44;5057744;28;20200;-71
2022/11/05 10:52:33;;;;;;;7.67;3.93;;;;;;;10.53;100.00;96414.84;5056607;28;20207;-70
2022/11/05 10:55:02;;;;;;;6.87;3.83;;;;;;;10.49;100.00;96421.44;5058323;28;20489;-70
2022/11/05 10:57:34;;;;;;;8.73;4.23;;;;;;;10.55;100.00;96423.38;5060699;28;20233;-71
2022/11/05 11:00:27;;;;;;;225.63;68.20;;;;;;;10.49;100.00;96424.09;5067488;28;20204;-71
2022/11/05 11:02:56;;;;;;;21.53;8.53;;;;;;;10.41;100.00;96432.00;5057415;28;20300;-70
2022/11/05 11:05:26;;;;;;;16.10;7.60;;;;;;;10.57;100.00;96426.66;5066027;28;20911;-71
2022/11/05 11:07:57;;;;;;;15.90;6.77;;;;;;;10.51;100.00;96422.09;5058153;28;20742;-69
2022/11/05 11:10:25;;;;;;;11.47;5.40;;;;;;;10.38;100.00;96437.63;5064975;28;20196;-68
2022/11/05 11:12:52;;;;;;;8.97;4.80;;;;;;;10.40;100.00;96436.47;5056877;28;20216;-70
2022/11/05 11:15:26;;;;;;;11.73;5.17;;;;;;;10.64;100.00;96438.16;5060922;28;20608;-70
2022/11/05 11:17:52;;;;;;;10.37;5.43;;;;;;;10.63;100.00;96426.00;5065095;28;21092;-70
2022/11/05 11:20:23;;;;;;;10.17;6.20;;;;;;;10.46;100.00;96435.78;5059777;28;20196;-71
2022/11/05 11:23:01;;;;;;;9.23;4.80;;;;;;;10.76;100.00;96434.97;5066534;28;20219;-71
2022/11/05 11:25:30;;;;;;;9.27;4.80;;;;;;;10.63;100.00;96434.72;5057802;28;20201;-70
2022/11/05 11:28:02;;;;;;;7.27;4.20;;;;;;;10.81;100.00;96434.47;5054608;28;20205;-71
2022/11/05 11:30:30;;;;;;;12.57;5.50;;;;;;;10.87;100.00;96431.94;5058709;28;20205;-71
2022/11/05 11:33:03;;;;;;;8.10;4.50;;;;;;;10.99;100.00;96436.63;5074312;28;20196;-69
2022/11/05 11:35:30;;;;;;;10.37;4.93;;;;;;;10.90;100.00;96433.41;5062605;28;20616;-71
2022/11/05 11:37:59;;;;;;;9.40;5.03;;;;;;;11.07;100.00;96438.41;5059690;28;20551;-69
2022/11/05 11:40:31;;;;;;;10.90;5.30;;;;;;;10.92;100.00;96426.97;5063423;28;20201;-70
2022/11/05 11:43:00;;;;;;;16.77;6.63;;;;;;;11.09;100.00;96429.31;5056871;28;20691;-71
2022/11/05 11:45:31;;;;;;;12.60;5.00;;;;;;;11.10;100.00;96435.44;5057912;28;20196;-70
2022/11/05 11:48:01;;;;;;;10.50;5.23;;;;;;;11.08;100.00;96440.03;5057562;28;20200;-70
2022/11/05 11:50:38;;;;;;;11.07;5.63;;;;;;;11.17;100.00;96436.34;5057436;28;20226;-71
2022/11/05 11:53:27;;;;;;;14.80;6.93;;;;;;;11.40;100.00;96437.97;5056999;28;20599;-69
2022/11/05 11:56:03;;;;;;;13.83;5.73;;;;;;;11.28;100.00;96430.69;5057178;28;20235;-71
2022/11/05 11:58:44;;;;;;;12.63;5.60;;;;;;;11.34;100.00;96441.34;5057351;28;20200;-71
2022/11/05 12:01:47;;;;;;;11.50;5.47;;;;;;;11.17;100.00;96431.06;5060862;28;20692;-69
2022/11/05 12:04:25;;;;;;;15.47;6.13;;;;;;;11.18;100.00;96441.44;5056968;28;20199;-69
2022/11/05 12:07:05;;;;;;;12.43;5.90;;;;;;;11.11;100.00;96442.31;5062615;28;20219;-71
2022/11/05 12:09:48;;;;;;;11.10;5.47;;;;;;;11.08;100.00;96443.47;5059584;28;20210;-71
2022/11/05 12:12:17;;;;;;;13.60;6.50;;;;;;;11.01;100.00;96439.91;5061797;28;20208;-69
2022/11/05 12:14:53;;;;;;;13.00;6.00;;;;;;;10.99;100.00;96439.25;5057852;28;20204;-70
2022/11/05 12:17:41;;;;;;;25.73;10.80;;;;;;;10.89;100.00;96445.75;5066881;28;20598;-69
2022/11/05 12:20:23;;;;;;;14.13;6.30;;;;;;;10.94;100.00;96444.22;5060228;28;20199;-70